createdAt,value
2019-03-28T00:00:41.373Z,13.80
2019-03-28T00:03:07.635Z,13.30
2019-03-28T00:05:33.864Z,12.53
2019-03-28T00:08:00.138Z,12.57
2019-03-28T00:10:26.392Z,12.70
2019-03-28T00:12:52.620Z,12.97
2019-03-28T00:15:18.836Z,12.20
2019-03-28T00:17:45.078Z,12.63
2019-03-28T00:20:11.606Z,11.97
2019-03-28T00:22:52.314Z,12.80
2019-03-28T00:25:19.011Z,12.53
2019-03-28T00:27:46.260Z,12.10
2019-03-28T00:30:13.595Z,11.80
2019-03-28T00:32:39.852Z,9.60
2019-03-28T00:35:06.224Z,11.13
2019-03-28T00:37:32.458Z,11.67
2019-03-28T00:39:58.680Z,11.60
2019-03-28T00:42:24.955Z,11.60
2019-03-28T00:44:51.428Z,10.50
2019-03-28T00:47:17.675Z,9.90
2019-03-28T00:49:45.811Z,12.00
2019-03-28T00:52:12.145Z,12.40
2019-03-28T00:54:38.385Z,12.50
2019-03-28T00:57:04.602Z,10.57
2019-03-28T00:59:31.484Z,12.20
2019-03-28T01:01:57.744Z,11.27
2019-03-28T01:04:24.019Z,10.70
2019-03-28T01:06:50.314Z,11.00
2019-03-28T01:09:16.555Z,11.30
2019-03-28T01:11:42.802Z,11.77
2019-03-28T01:14:09.036Z,10.67
2019-03-28T01:16:36.342Z,11.53
2019-03-28T01:19:02.824Z,11.10
2019-03-28T01:21:29.083Z,10.40
2019-03-28T01:23:55.458Z,10.83
2019-03-28T01:26:21.708Z,11.80
2019-03-28T01:28:47.937Z,10.53
2019-03-28T01:31:14.544Z,10.93
2019-03-28T01:33:40.785Z,12.67
2019-03-28T01:36:07.021Z,11.40
2019-03-28T01:38:33.297Z,11.77
2019-03-28T01:40:59.630Z,12.27
2019-03-28T01:43:25.908Z,12.23
2019-03-28T01:45:52.219Z,11.73
2019-03-28T01:48:18.457Z,11.83
2019-03-28T01:50:44.729Z,13.40
2019-03-28T01:53:11.106Z,12.13
2019-03-28T01:55:37.580Z,11.20
2019-03-28T01:58:03.792Z,11.80
2019-03-28T02:00:30.038Z,11.97
2019-03-28T02:02:56.266Z,10.77
2019-03-28T02:05:22.489Z,11.00
2019-03-28T02:07:48.764Z,10.83
2019-03-28T02:10:14.987Z,12.80
2019-03-28T02:12:41.221Z,11.40
2019-03-28T02:15:07.967Z,11.13
2019-03-28T02:17:34.209Z,12.37
2019-03-28T02:20:00.451Z,10.77
2019-03-28T02:22:26.686Z,12.70
2019-03-28T02:24:52.949Z,12.20
2019-03-28T02:27:24.269Z,12.70
2019-03-28T02:29:47.398Z,12.30
2019-03-28T02:32:13.651Z,11.67
2019-03-28T02:34:39.874Z,11.23
2019-03-28T02:37:06.190Z,12.43
2019-03-28T02:39:32.387Z,11.50
2019-03-28T02:41:58.642Z,11.77
2019-03-28T02:44:24.885Z,12.60
2019-03-28T02:46:51.125Z,12.43
2019-03-28T02:49:17.451Z,12.50
2019-03-28T02:51:43.674Z,12.47
2019-03-28T02:54:09.933Z,13.10
2019-03-28T02:56:36.191Z,13.20
2019-03-28T02:59:02.975Z,12.50
2019-03-28T03:01:30.398Z,12.50
2019-03-28T03:03:56.748Z,12.63
2019-03-28T03:06:22.971Z,12.67
2019-03-28T03:08:49.223Z,12.00
2019-03-28T03:11:15.431Z,11.03
2019-03-28T03:13:41.666Z,12.33
2019-03-28T03:16:07.958Z,11.10
2019-03-28T03:18:34.178Z,10.80
2019-03-28T03:21:00.431Z,11.23
2019-03-28T03:23:26.672Z,12.60
2019-03-28T03:25:52.898Z,11.57
2019-03-28T03:28:20.152Z,13.00
2019-03-28T03:30:46.405Z,13.00
2019-03-28T03:33:13.994Z,12.50
2019-03-28T03:35:40.341Z,13.20
2019-03-28T03:38:06.594Z,12.00
2019-03-28T03:40:32.841Z,11.97
2019-03-28T03:42:59.075Z,12.73
2019-03-28T03:45:25.404Z,10.83
2019-03-28T03:47:51.646Z,13.50
2019-03-28T03:50:27.143Z,11.97
2019-03-28T03:52:53.394Z,12.87
2019-03-28T03:55:19.635Z,12.03
2019-03-28T03:57:47.203Z,13.60
2019-03-28T04:00:30.192Z,14.37
2019-03-28T04:02:56.624Z,11.40
2019-03-28T04:05:22.900Z,13.93
2019-03-28T04:07:49.107Z,11.70
2019-03-28T04:10:15.348Z,12.70
2019-03-28T04:12:41.584Z,12.83
2019-03-28T04:15:08.095Z,11.60
2019-03-28T04:17:34.355Z,13.57
2019-03-28T04:20:00.597Z,12.73
2019-03-28T04:22:26.864Z,13.13
2019-03-28T04:24:53.103Z,12.63
2019-03-28T04:27:20.929Z,13.27
2019-03-28T04:29:47.261Z,13.37
2019-03-28T04:32:13.494Z,11.40
2019-03-28T04:34:39.741Z,13.23
2019-03-28T04:37:06.565Z,13.90
2019-03-28T04:39:33.069Z,12.80
2019-03-28T04:41:59.297Z,13.43
2019-03-28T04:44:25.785Z,14.47
2019-03-28T04:46:52.057Z,13.50
2019-03-28T04:49:18.670Z,14.20
2019-03-28T04:51:45.072Z,15.27
2019-03-28T04:54:11.324Z,14.70
2019-03-28T04:56:38.269Z,15.00
2019-03-28T04:59:04.557Z,15.80
2019-03-28T05:01:30.807Z,16.37
2019-03-28T05:03:57.060Z,17.37
2019-03-28T05:06:23.779Z,13.50
2019-03-28T05:08:50.774Z,14.60
2019-03-28T05:11:17.013Z,16.00
2019-03-28T05:13:43.279Z,16.50
2019-03-28T05:16:09.533Z,14.50
2019-03-28T05:18:35.892Z,16.10
2019-03-28T05:21:02.107Z,14.57
2019-03-28T05:23:28.451Z,13.70
2019-03-28T05:25:54.663Z,14.60
2019-03-28T05:28:20.972Z,15.07
2019-03-28T05:30:47.462Z,15.27
2019-03-28T05:33:15.590Z,12.83
2019-03-28T05:35:41.854Z,17.43
2019-03-28T05:38:08.279Z,14.60
2019-03-28T05:40:34.493Z,15.80
2019-03-28T05:43:00.717Z,17.67
2019-03-28T05:45:26.954Z,13.83
2019-03-28T05:47:53.219Z,15.10
2019-03-28T05:50:19.489Z,14.37
2019-03-28T05:52:45.719Z,15.30
2019-03-28T05:55:11.948Z,13.90
2019-03-28T05:57:38.520Z,18.50
2019-03-28T06:00:05.892Z,17.67
2019-03-28T06:02:32.098Z,16.57
2019-03-28T06:04:58.527Z,18.70
2019-03-28T06:07:24.747Z,16.43
2019-03-28T06:09:51.028Z,16.10
2019-03-28T06:12:19.028Z,16.53
2019-03-28T06:14:45.393Z,16.60
2019-03-28T06:17:11.614Z,16.10
2019-03-28T06:19:38.396Z,17.33
2019-03-28T06:22:04.810Z,17.20
2019-03-28T06:24:31.323Z,18.13
2019-03-28T06:26:57.644Z,17.07
2019-03-28T06:29:25.292Z,16.00
2019-03-28T06:31:55.699Z,15.87
2019-03-28T06:34:20.207Z,15.10
2019-03-28T06:36:46.438Z,17.13
2019-03-28T06:39:12.718Z,15.90
2019-03-28T06:41:38.990Z,16.93
2019-03-28T06:44:05.219Z,15.10
2019-03-28T06:46:31.449Z,16.87
2019-03-28T06:48:57.742Z,16.70
2019-03-28T06:51:23.984Z,17.30
2019-03-28T06:53:50.203Z,18.20
2019-03-28T06:56:17.331Z,15.90
2019-03-28T06:58:43.843Z,17.00
2019-03-28T07:01:10.062Z,16.93
2019-03-28T07:03:36.579Z,18.50
2019-03-28T07:06:03.106Z,14.67
2019-03-28T07:08:29.330Z,15.40
2019-03-28T07:10:57.985Z,15.17
2019-03-28T07:13:24.186Z,16.07
2019-03-28T07:15:50.503Z,17.30
2019-03-28T07:18:16.749Z,17.97
2019-03-28T07:20:42.981Z,18.77
2019-03-28T07:23:09.231Z,18.87
2019-03-28T07:25:35.476Z,20.80
2019-03-28T07:28:01.814Z,19.73
2019-03-28T07:30:28.108Z,20.67
2019-03-28T07:32:54.329Z,18.97
2019-03-28T07:35:20.577Z,20.03
2019-03-28T07:37:46.912Z,20.80
2019-03-28T07:40:14.653Z,21.13
2019-03-28T07:42:40.889Z,20.40
2019-03-28T07:45:08.031Z,19.47
2019-03-28T07:47:34.509Z,21.13
2019-03-28T07:50:01.060Z,20.80
2019-03-28T07:52:27.642Z,18.77
2019-03-28T07:54:54.013Z,19.70
2019-03-28T07:57:20.268Z,19.63
2019-03-28T07:59:46.719Z,18.83
2019-03-28T08:02:12.916Z,19.77
2019-03-28T08:04:39.159Z,17.70
2019-03-28T08:07:05.545Z,17.47
2019-03-28T08:09:36.831Z,17.23
2019-03-28T08:11:59.895Z,17.17
2019-03-28T08:14:26.133Z,17.37
2019-03-28T08:16:52.482Z,17.50
2019-03-28T08:19:18.706Z,16.80
2019-03-28T08:21:44.963Z,15.87
2019-03-28T08:24:11.225Z,15.30
2019-03-28T08:26:37.555Z,14.00
2019-03-28T08:29:04.003Z,15.43
2019-03-28T08:31:31.227Z,13.60
2019-03-28T08:33:57.458Z,13.87
2019-03-28T08:36:25.516Z,11.97
2019-03-28T08:38:53.387Z,13.30
2019-03-28T08:41:19.938Z,13.43
2019-03-28T08:43:46.222Z,15.20
2019-03-28T08:46:13.656Z,13.80
2019-03-28T08:48:39.995Z,13.50
2019-03-28T08:51:06.585Z,13.53
2019-03-28T08:53:32.826Z,11.67
2019-03-28T08:55:59.163Z,12.73
2019-03-28T08:58:25.395Z,11.50
2019-03-28T09:03:36.304Z,12.87
2019-03-28T09:06:02.858Z,11.60
2019-03-28T09:08:29.129Z,11.77
2019-03-28T09:10:55.452Z,11.20
2019-03-28T09:13:27.540Z,11.70
2019-03-28T09:15:56.987Z,10.30
2019-03-28T09:18:32.275Z,11.30
2019-03-28T09:20:58.736Z,11.00
2019-03-28T09:23:25.072Z,11.07
2019-03-28T09:25:51.323Z,12.27
2019-03-28T09:28:17.580Z,10.47
2019-03-28T09:30:48.836Z,12.27
2019-03-28T09:33:11.982Z,9.60
2019-03-28T09:35:38.574Z,9.50
2019-03-28T09:38:04.870Z,10.07
2019-03-28T09:40:31.309Z,11.03
2019-03-28T09:42:57.652Z,11.00
2019-03-28T09:45:23.999Z,10.13
2019-03-28T09:47:50.312Z,10.57
2019-03-28T09:50:17.049Z,9.10
2019-03-28T09:52:43.266Z,11.27
2019-03-28T09:55:09.792Z,10.33
2019-03-28T09:57:36.021Z,10.73
2019-03-28T10:00:07.172Z,10.83
2019-03-28T10:02:33.509Z,12.33
2019-03-28T10:04:59.956Z,12.20
2019-03-28T10:07:26.195Z,11.20
2019-03-28T10:09:52.829Z,11.17
2019-03-28T10:12:19.102Z,11.37
2019-03-28T10:14:45.367Z,11.33
2019-03-28T10:17:11.930Z,13.00
2019-03-28T10:19:38.228Z,11.97
2019-03-28T10:22:04.516Z,10.17
2019-03-28T10:24:30.823Z,9.33
2019-03-28T10:26:57.131Z,10.07
2019-03-28T10:29:23.411Z,12.07
2019-03-28T10:31:49.884Z,10.67
2019-03-28T10:34:16.425Z,10.17
2019-03-28T10:36:42.788Z,10.37
2019-03-28T10:39:09.240Z,9.93
2019-03-28T10:41:39.681Z,10.00
2019-03-28T10:44:05.180Z,9.87
2019-03-28T10:46:31.489Z,8.63
2019-03-28T10:48:57.788Z,8.57
2019-03-28T10:51:24.121Z,7.77
2019-03-28T10:53:50.550Z,8.53
2019-03-28T10:56:21.813Z,8.40
2019-03-28T10:58:45.325Z,9.10
2019-03-28T11:01:12.028Z,7.20
2019-03-28T11:03:38.345Z,5.50
2019-03-28T11:06:04.668Z,6.10
2019-03-28T11:08:30.984Z,5.70
2019-03-28T11:10:57.303Z,5.17
2019-03-28T11:13:23.652Z,5.60
2019-03-28T11:15:49.936Z,5.80
2019-03-28T11:18:16.259Z,5.20
2019-03-28T11:20:42.910Z,5.50
2019-03-28T11:23:09.206Z,5.57
2019-03-28T11:25:35.739Z,5.00
2019-03-28T11:28:02.073Z,5.87
2019-03-28T11:30:28.379Z,5.80
2019-03-28T11:32:54.798Z,6.17
2019-03-28T11:35:21.091Z,5.67
2019-03-28T11:37:47.424Z,6.27
2019-03-28T11:40:14.160Z,5.90
2019-03-28T11:42:40.545Z,6.93
2019-03-28T11:45:09.332Z,6.63
2019-03-28T11:47:36.084Z,6.30
2019-03-28T11:50:07.647Z,6.43
2019-03-28T11:52:34.264Z,7.30
2019-03-28T11:55:00.596Z,6.50
2019-03-28T11:57:26.921Z,6.33
2019-03-28T11:59:53.198Z,7.10
2019-03-28T12:02:20.639Z,9.50
2019-03-28T12:04:47.132Z,11.00
2019-03-28T12:07:13.434Z,8.20
2019-03-28T12:09:39.836Z,7.07
2019-03-28T12:12:06.168Z,8.70
2019-03-28T12:14:32.481Z,8.10
2019-03-28T12:16:58.802Z,9.93
2019-03-28T12:19:25.099Z,9.50
2019-03-28T12:21:51.720Z,9.17
2019-03-28T12:24:18.762Z,8.27
2019-03-28T12:26:45.118Z,11.07
2019-03-28T12:29:11.435Z,11.23
2019-03-28T12:31:37.740Z,10.47
2019-03-28T12:34:04.038Z,12.20
2019-03-28T12:36:30.343Z,10.30
2019-03-28T12:38:56.673Z,10.60
2019-03-28T12:41:23.006Z,9.30
2019-03-28T12:43:49.320Z,9.03
2019-03-28T12:46:15.643Z,9.33
2019-03-28T12:48:41.965Z,9.10
2019-03-28T12:51:08.267Z,10.70
2019-03-28T12:53:34.763Z,10.70
2019-03-28T12:56:01.108Z,10.47
2019-03-28T12:58:27.428Z,10.60
2019-03-28T13:00:53.738Z,10.87
2019-03-28T13:03:20.059Z,10.80
2019-03-28T13:05:46.415Z,10.50
2019-03-28T13:08:12.720Z,9.10
2019-03-28T13:10:39.017Z,11.33
2019-03-28T13:13:05.364Z,9.67
2019-03-28T13:15:31.690Z,10.40
2019-03-28T13:17:58.101Z,9.63
2019-03-28T13:20:24.407Z,10.70
2019-03-28T13:22:52.076Z,10.43
2019-03-28T13:25:18.499Z,10.60
2019-03-28T13:27:44.800Z,9.83
2019-03-28T13:30:13.203Z,9.37
2019-03-28T13:32:41.913Z,11.00
2019-03-28T13:35:08.920Z,10.20
2019-03-28T13:37:36.123Z,9.67
2019-03-28T13:40:06.134Z,10.17
2019-03-28T13:42:32.443Z,11.33
2019-03-28T13:45:00.931Z,9.60
2019-03-28T13:47:27.296Z,10.03
2019-03-28T13:49:53.728Z,10.47
2019-03-28T13:52:20.055Z,10.70
2019-03-28T13:54:46.758Z,9.00
2019-03-28T13:57:13.085Z,9.10
2019-03-28T13:59:39.396Z,8.07
2019-03-28T14:02:07.142Z,9.63
2019-03-28T14:04:33.586Z,9.70
2019-03-28T14:06:59.906Z,9.00
2019-03-28T14:09:27.212Z,9.70
2019-03-28T14:11:53.620Z,8.47
2019-03-28T14:14:19.928Z,8.70
2019-03-28T14:16:46.264Z,9.37
2019-03-28T14:19:12.571Z,8.93
2019-03-28T14:21:38.920Z,8.43
2019-03-28T14:24:05.232Z,9.87
2019-03-28T14:26:31.538Z,9.57
2019-03-28T14:28:57.849Z,8.70
2019-03-28T14:31:24.150Z,9.17
2019-03-28T14:33:51.265Z,10.10
2019-03-28T14:36:17.557Z,8.57
2019-03-28T14:38:44.710Z,9.73
2019-03-28T14:41:11.019Z,9.27
2019-03-28T14:43:37.353Z,8.63
2019-03-28T14:46:03.840Z,8.87
2019-03-28T14:48:30.147Z,8.50
2019-03-28T14:50:56.499Z,8.43
2019-03-28T14:53:22.853Z,8.57
2019-03-28T14:55:49.579Z,8.70
2019-03-28T14:58:15.897Z,8.40
2019-03-28T15:00:51.176Z,8.67
2019-03-28T15:03:26.395Z,7.70
2019-03-28T15:05:46.692Z,8.10
2019-03-28T15:08:28.160Z,8.37
2019-03-28T15:10:54.493Z,8.00
2019-03-28T15:13:20.812Z,8.13
2019-03-28T15:15:47.122Z,7.57
2019-03-28T15:18:13.441Z,6.83
2019-03-28T15:20:39.845Z,7.43
2019-03-28T15:23:06.248Z,6.17
2019-03-28T15:25:32.547Z,5.80
2019-03-28T15:27:58.906Z,6.50
2019-03-28T15:30:25.211Z,5.50
2019-03-28T15:32:51.569Z,6.43
2019-03-28T15:35:17.996Z,6.20
2019-03-28T15:37:44.601Z,7.00
2019-03-28T15:40:11.197Z,5.70
2019-03-28T15:42:37.501Z,6.10
2019-03-28T15:45:07.224Z,5.70
2019-03-28T15:47:33.987Z,6.10
2019-03-28T15:50:00.428Z,6.37
2019-03-28T15:52:27.588Z,4.97
2019-03-28T15:54:54.075Z,6.10
2019-03-28T15:57:20.389Z,5.20
2019-03-28T15:59:48.093Z,4.90
2019-03-28T16:02:14.460Z,5.10
2019-03-28T16:04:40.754Z,5.40
2019-03-28T16:07:07.825Z,5.30
2019-03-28T16:09:34.300Z,6.67
2019-03-28T16:12:02.808Z,6.83
2019-03-28T16:14:28.836Z,5.17
2019-03-28T16:16:55.399Z,6.10
2019-03-28T16:19:21.817Z,5.70
2019-03-28T16:21:48.115Z,5.73
2019-03-28T16:24:14.436Z,6.33
2019-03-28T16:26:40.744Z,5.40
2019-03-28T16:29:07.423Z,6.10
2019-03-28T16:31:33.974Z,6.10
2019-03-28T16:34:06.653Z,5.53
2019-03-28T16:36:28.740Z,5.53
2019-03-28T16:38:55.060Z,5.80
2019-03-28T16:41:21.364Z,6.27
2019-03-28T16:43:47.687Z,7.07
2019-03-28T16:46:14.114Z,7.33
2019-03-28T16:48:40.531Z,7.90
2019-03-28T16:51:06.844Z,6.43
2019-03-28T16:53:33.289Z,6.80
2019-03-28T16:55:59.587Z,6.00
2019-03-28T16:58:26.299Z,6.30
2019-03-28T17:04:52.038Z,5.43
2019-03-28T17:07:18.663Z,7.30
2019-03-28T17:09:46.022Z,6.90
2019-03-28T17:12:12.476Z,6.30
2019-03-28T17:14:38.781Z,7.77
2019-03-28T17:17:05.117Z,7.17
2019-03-28T17:19:31.926Z,6.90
2019-03-28T17:21:58.309Z,7.93
2019-03-28T17:24:24.715Z,8.17
2019-03-28T17:26:51.088Z,7.67
2019-03-28T17:29:17.416Z,7.67
2019-03-28T17:31:44.959Z,7.40
2019-03-28T17:34:11.581Z,7.53
2019-03-28T17:36:37.870Z,7.83
2019-03-28T17:39:05.074Z,7.87
2019-03-28T17:41:31.867Z,7.17
2019-03-28T17:43:58.424Z,8.17
2019-03-28T17:46:24.772Z,8.00
2019-03-28T17:48:51.111Z,7.80
2019-03-28T17:51:17.411Z,9.60
2019-03-28T17:53:43.736Z,10.80
2019-03-28T17:56:10.067Z,8.60
2019-03-28T17:58:36.370Z,8.47
2019-03-28T18:01:03.519Z,6.93
2019-03-28T18:03:31.566Z,8.43
2019-03-28T18:05:58.767Z,8.10
2019-03-28T18:08:25.172Z,8.03
2019-03-28T18:10:51.504Z,7.20
2019-03-28T18:13:17.824Z,7.03
2019-03-28T18:15:44.237Z,6.60
2019-03-28T18:18:12.037Z,5.97
2019-03-28T18:20:38.619Z,5.80
2019-03-28T18:23:04.972Z,9.20
2019-03-28T18:25:31.310Z,6.07
2019-03-28T18:27:57.624Z,6.53
2019-03-28T18:30:24.641Z,5.17
2019-03-28T18:32:50.964Z,5.07
2019-03-28T18:35:17.500Z,5.10
2019-03-28T18:37:44.754Z,4.20
2019-03-28T18:40:11.559Z,4.57
2019-03-28T18:42:37.969Z,4.00
2019-03-28T18:45:07.815Z,3.97
2019-03-28T18:47:34.345Z,3.90
2019-03-28T18:50:03.361Z,4.70
2019-03-28T18:52:29.056Z,3.90
2019-03-28T18:54:55.376Z,4.13
2019-03-28T18:57:21.695Z,4.13
2019-03-28T18:59:48.012Z,4.70
2019-03-28T19:02:14.331Z,5.60
2019-03-28T19:04:40.653Z,4.23
2019-03-28T19:07:06.967Z,3.60
2019-03-28T19:09:33.341Z,4.20
2019-03-28T19:11:59.777Z,3.70
2019-03-28T19:14:26.090Z,4.03
2019-03-28T19:16:52.393Z,4.60
2019-03-28T19:19:18.940Z,4.00
2019-03-28T19:21:45.258Z,4.17
2019-03-28T19:24:11.594Z,3.40
2019-03-28T19:26:37.953Z,3.30
2019-03-28T19:29:04.277Z,4.00
2019-03-28T19:31:30.877Z,3.77
2019-03-28T19:33:57.190Z,4.00
2019-03-28T19:36:24.301Z,4.20
2019-03-28T19:38:50.727Z,4.57
2019-03-28T19:41:17.038Z,4.90
2019-03-28T19:43:43.799Z,3.60
2019-03-28T19:46:10.913Z,3.80
2019-03-28T19:48:37.257Z,4.07
2019-03-28T19:51:03.564Z,4.17
2019-03-28T19:53:29.892Z,4.40
2019-03-28T19:55:56.241Z,4.23
2019-03-28T19:58:22.537Z,4.27
2019-03-28T20:00:48.900Z,4.63
2019-03-28T20:03:15.338Z,4.13
2019-03-28T20:05:47.902Z,4.13
2019-03-28T20:08:15.855Z,4.30
2019-03-28T20:10:38.284Z,4.60
2019-03-28T20:13:05.432Z,6.03
2019-03-28T20:15:32.025Z,4.63
2019-03-28T20:18:00.250Z,3.57
2019-03-28T20:20:26.560Z,3.90
2019-03-28T20:22:52.989Z,4.73
2019-03-28T20:25:19.431Z,4.17
2019-03-28T20:27:45.757Z,3.73
2019-03-28T20:30:12.714Z,4.37
2019-03-28T20:32:39.047Z,4.47
2019-03-28T20:35:06.192Z,5.00
2019-03-28T20:37:32.506Z,5.40
2019-03-28T20:39:58.989Z,5.20
2019-03-28T20:42:25.337Z,5.00
2019-03-28T20:44:51.674Z,3.90
2019-03-28T20:47:17.999Z,4.53
2019-03-28T20:49:46.671Z,4.80
2019-03-28T20:52:12.577Z,5.07
2019-03-28T20:54:38.893Z,4.73
2019-03-28T20:57:05.243Z,5.33
2019-03-28T20:59:31.540Z,4.67
2019-03-28T21:01:57.960Z,5.53
2019-03-28T21:04:31.284Z,5.57
2019-03-28T21:06:52.579Z,4.60
2019-03-28T21:09:19.011Z,4.60
2019-03-28T21:11:45.354Z,5.07
2019-03-28T21:14:11.630Z,4.53
2019-03-28T21:16:38.182Z,4.87
2019-03-28T21:19:04.696Z,5.10
2019-03-28T21:21:31.108Z,4.80
2019-03-28T21:23:57.385Z,5.00
2019-03-28T21:26:23.716Z,5.13
2019-03-28T21:28:50.884Z,5.10
2019-03-28T21:31:17.536Z,4.93
2019-03-28T21:33:43.813Z,4.77
2019-03-28T21:36:10.205Z,5.07
2019-03-28T21:38:36.435Z,5.00
2019-03-28T21:41:02.773Z,5.40
2019-03-28T21:43:29.167Z,6.07
2019-03-28T21:45:55.387Z,5.00
2019-03-28T21:48:21.850Z,5.37
2019-03-28T21:51:45.757Z,5.10
2019-03-28T21:54:11.342Z,4.90
2019-03-28T21:56:37.792Z,6.13
2019-03-28T21:59:05.953Z,5.40
2019-03-28T22:01:32.835Z,5.80
2019-03-28T22:03:59.037Z,6.07
2019-03-28T22:06:25.271Z,6.03
2019-03-28T22:08:51.498Z,5.60
2019-03-28T22:11:17.717Z,5.73
2019-03-28T22:13:43.944Z,5.63
2019-03-28T22:16:10.205Z,5.57
2019-03-28T22:18:36.433Z,5.07
2019-03-28T22:21:03.077Z,5.37
2019-03-28T22:23:29.340Z,5.87
2019-03-28T22:25:55.571Z,6.30
2019-03-28T22:28:21.814Z,5.40
2019-03-28T22:30:48.061Z,6.07
2019-03-28T22:33:14.331Z,5.47
2019-03-28T22:35:40.803Z,5.53
2019-03-28T22:38:07.039Z,5.60
2019-03-28T22:40:33.346Z,6.10
2019-03-28T22:42:59.596Z,5.40
2019-03-28T22:45:25.925Z,5.30
2019-03-28T22:47:52.191Z,5.83
2019-03-28T22:50:18.423Z,5.20
2019-03-28T22:52:44.678Z,5.90
2019-03-28T22:55:11.613Z,5.70
2019-03-28T22:57:37.837Z,6.87
2019-03-28T23:00:11.880Z,5.90
2019-03-28T23:02:38.507Z,7.03
2019-03-28T23:05:07.580Z,6.90
2019-03-28T23:07:33.872Z,6.97
2019-03-28T23:10:00.362Z,6.70
2019-03-28T23:12:26.545Z,6.57
2019-03-28T23:14:52.791Z,6.87
2019-03-28T23:17:19.045Z,6.60
2019-03-28T23:19:45.423Z,6.77
2019-03-28T23:22:11.684Z,7.27
2019-03-28T23:24:39.157Z,6.17
2019-03-28T23:27:05.543Z,7.43
2019-03-28T23:29:32.006Z,6.90
2019-03-28T23:31:58.282Z,6.70
2019-03-28T23:34:24.529Z,7.13
2019-03-28T23:36:50.768Z,7.30
2019-03-28T23:39:16.997Z,6.80
2019-03-28T23:41:43.271Z,7.20
2019-03-28T23:44:09.504Z,7.90
2019-03-28T23:46:35.742Z,7.43
2019-03-28T23:49:01.979Z,7.17
2019-03-28T23:51:28.210Z,7.27
2019-03-28T23:53:54.468Z,7.43
2019-03-28T23:56:20.697Z,7.57
2019-03-28T23:58:47.124Z,7.70
